Time;durP1;ratioP1;P1;durP2;ratioP2;P2;SDS_P1;SDS_P2;PMS_P1;PMS_P2;Temp;Humidity;BMP_temperature;BMP_pressure;BME280_temperature;BME280_humidity;BME280_pressure;Samples;Min_cycle;Max_cycle;Signal;HPM_P1;HPM_P2
2022/02/24 00:00:38;;;;;;;19.13;11.60;;;;;;;0.72;91.97;101387.28;1442260;89;22816;-89
2022/02/24 00:03:05;;;;;;;15.27;10.57;;;;;;;0.66;91.76;101391.41;1461633;89;21701;-89
2022/02/24 00:05:32;;;;;;;14.30;10.00;;;;;;;0.58;92.06;101390.89;1461838;89;21702;-92
2022/02/24 00:07:59;;;;;;;16.53;11.67;;;;;;;0.53;92.36;101391.52;1453735;89;21434;-89
2022/02/24 00:10:26;;;;;;;14.90;10.60;;;;;;;0.48;92.93;101388.23;1467175;88;21494;-90
2022/02/24 00:12:53;;;;;;;17.50;11.57;;;;;;;0.44;92.88;101388.36;1462626;89;21546;-92
2022/02/24 00:15:21;;;;;;;12.73;9.20;;;;;;;0.42;92.40;101390.16;1464687;88;21717;-92
2022/02/24 00:17:47;;;;;;;11.90;8.93;;;;;;;0.42;91.73;101401.88;1469147;88;21562;-90
2022/02/24 00:20:15;;;;;;;11.73;9.73;;;;;;;0.42;91.70;101400.58;1476046;88;21433;-92
2022/02/24 00:22:42;;;;;;;12.20;8.93;;;;;;;0.42;91.72;101405.79;1469625;89;21540;-93
2022/02/24 00:25:10;;;;;;;12.83;9.33;;;;;;;0.42;91.76;101410.16;1466924;89;21650;-93
2022/02/24 00:27:38;;;;;;;12.23;10.10;;;;;;;0.43;91.49;101412.72;1490228;87;21637;-93
2022/02/24 00:30:08;;;;;;;12.80;9.97;;;;;;;0.43;91.42;101411.84;1454346;89;22473;-92
2022/02/24 00:32:35;;;;;;;13.77;9.50;;;;;;;0.41;91.50;101414.52;1477317;89;21646;-91
2022/02/24 00:35:02;;;;;;;16.60;11.40;;;;;;;0.38;91.39;101412.03;1462524;89;21701;-91
2022/02/24 00:37:30;;;;;;;12.07;9.40;;;;;;;0.35;91.30;101411.31;1464204;89;21734;-93
2022/02/24 00:39:57;;;;;;;13.97;9.80;;;;;;;0.32;91.61;101412.73;1427413;89;21623;-91
2022/02/24 00:42:25;;;;;;;13.75;10.28;;;;;;;0.30;91.50;101411.47;1457373;89;21558;-91
2022/02/24 00:44:52;;;;;;;16.43;11.40;;;;;;;0.22;92.23;101416.11;1466786;89;21487;-90
2022/02/24 00:47:21;;;;;;;10.40;8.47;;;;;;;0.13;92.68;101406.89;1457361;89;21587;-91
2022/02/24 00:49:49;;;;;;;10.65;8.53;;;;;;;0.06;93.32;101414.97;1452757;89;21462;-91
2022/02/24 00:52:16;;;;;;;11.57;8.53;;;;;;;0.01;93.39;101414.31;1470355;89;22432;-89
2022/02/24 00:54:45;;;;;;;11.57;8.27;;;;;;;-0.03;92.73;101419.63;1460203;89;21330;-92
2022/02/24 00:57:15;;;;;;;12.20;9.33;;;;;;;-0.04;92.84;101418.38;1459324;89;23087;-93
2022/02/24 00:59:42;;;;;;;12.83;10.07;;;;;;;-0.05;92.29;101414.09;1441090;89;22401;-91
2022/02/24 01:02:10;;;;;;;13.70;9.28;;;;;;;-0.04;91.94;101402.30;1457969;89;21633;-89
2022/02/24 01:04:37;;;;;;;13.37;9.37;;;;;;;-0.03;91.73;101404.02;1461863;89;21403;-90
2022/02/24 01:07:04;;;;;;;11.97;9.00;;;;;;;-0.04;91.64;101402.30;1457040;89;21653;-91
2022/02/24 01:09:31;;;;;;;13.53;8.18;;;;;;;-0.05;91.63;101401.08;1460435;89;22946;-90
2022/02/24 01:11:59;;;;;;;11.83;9.10;;;;;;;-0.10;91.89;101409.03;1466515;89;21418;-89
2022/02/24 01:14:26;;;;;;;15.30;9.63;;;;;;;-0.15;92.11;101406.20;1464362;89;21508;-89
2022/02/24 01:16:53;;;;;;;14.15;9.80;;;;;;;-0.17;91.69;101408.00;1458229;89;21730;-90
2022/02/24 01:19:20;;;;;;;18.95;11.63;;;;;;;-0.19;91.40;101406.77;1454697;89;21419;-90
2022/02/24 01:21:48;;;;;;;17.07;11.00;;;;;;;-0.18;91.39;101398.50;1464805;88;21425;-89
2022/02/24 01:24:15;;;;;;;12.13;9.30;;;;;;;-0.16;91.36;101407.95;1457711;89;22422;-90
2022/02/24 01:26:42;;;;;;;14.15;10.40;;;;;;;-0.15;91.40;101401.84;1462119;89;21374;-88
2022/02/24 01:29:10;;;;;;;13.20;9.85;;;;;;;-0.12;91.40;101391.31;1452081;89;21382;-90
2022/02/24 01:31:37;;;;;;;12.58;8.25;;;;;;;-0.08;91.50;101399.88;1445728;89;21367;-89
2022/02/24 01:34:04;;;;;;;10.90;7.93;;;;;;;-0.04;91.40;101399.70;1466703;88;21491;-90
2022/02/24 01:36:31;;;;;;;11.57;8.60;;;;;;;-0.04;91.29;101397.09;1453659;89;22165;-89
2022/02/24 01:38:59;;;;;;;10.10;7.90;;;;;;;-0.04;91.29;101397.55;1436705;89;21531;-89
2022/02/24 01:41:26;;;;;;;9.15;7.90;;;;;;;-0.02;91.09;101397.05;1451449;90;21308;-89
2022/02/24 01:43:53;;;;;;;10.43;7.25;;;;;;;-0.02;91.08;101397.89;1450052;90;21339;-89
2022/02/24 01:46:21;;;;;;;12.40;8.85;;;;;;;-0.04;91.27;101404.91;1446157;90;21412;-89
2022/02/24 01:48:48;;;;;;;11.05;8.55;;;;;;;-0.08;91.22;101400.73;1444416;90;21339;-88
2022/02/24 01:51:15;;;;;;;13.15;8.83;;;;;;;-0.14;91.82;101386.64;1452016;90;21486;-88
2022/02/24 01:53:42;;;;;;;11.90;8.85;;;;;;;-0.17;91.56;101395.86;1451362;90;22424;-88
2022/02/24 01:56:11;;;;;;;12.58;9.53;;;;;;;-0.21;91.74;101396.86;1446404;90;21433;-89
2022/02/24 01:58:38;;;;;;;10.03;8.40;;;;;;;-0.26;91.65;101389.66;1444968;90;22306;-88
2022/02/24 02:01:05;;;;;;;12.03;9.25;;;;;;;-0.25;91.41;101388.78;1445688;90;21511;-88
2022/02/24 02:03:32;;;;;;;15.08;10.15;;;;;;;-0.28;91.31;101379.78;1447230;90;22429;-88
2022/02/24 02:06:00;;;;;;;13.48;9.53;;;;;;;-0.28;91.00;101379.78;1434718;90;21866;-87
2022/02/24 02:08:27;;;;;;;10.93;8.28;;;;;;;-0.27;90.93;101380.17;1442822;90;21434;-89
2022/02/24 02:10:54;;;;;;;12.95;10.20;;;;;;;-0.25;90.87;101367.97;1444872;90;21346;-89
2022/02/24 02:13:22;;;;;;;40.10;10.53;;;;;;;-0.23;90.73;101373.97;1446930;90;21427;-88
2022/02/24 02:15:53;;;;;;;12.68;8.83;;;;;;;-0.21;90.59;101372.14;1449209;90;21353;-88
2022/02/24 02:18:20;;;;;;;12.40;9.45;;;;;;;-0.19;90.40;101369.04;1446653;90;21660;-88
2022/02/24 02:20:47;;;;;;;14.28;10.40;;;;;;;-0.23;90.04;101370.07;1427996;90;21494;-88
2022/02/24 02:23:14;;;;;;;11.30;8.40;;;;;;;-0.29;89.79;101378.06;1434357;90;21649;-88
2022/02/24 02:25:41;;;;;;;11.45;9.45;;;;;;;-0.33;89.63;101381.23;1446399;90;21368;-89
2022/02/24 02:28:14;;;;;;;14.75;9.83;;;;;;;-0.37;89.59;101384.02;1422280;90;21449;-87
2022/02/24 02:30:43;;;;;;;32.60;19.20;;;;;;;-0.44;89.56;101383.82;1427738;91;21457;-87
2022/02/24 02:33:10;;;;;;;29.72;16.17;;;;;;;-0.52;89.57;101379.75;1430762;91;21435;-89
2022/02/24 02:35:38;;;;;;;27.07;15.35;;;;;;;-0.56;89.63;101388.55;1426562;91;21441;-88
2022/02/24 02:38:05;;;;;;;24.60;14.35;;;;;;;-0.60;89.47;101393.92;1427281;91;21472;-89
2022/02/24 02:40:37;;;;;;;24.15;13.68;;;;;;;-0.62;89.63;101392.66;1441583;90;22298;-92
2022/02/24 02:43:06;;;;;;;17.80;12.00;;;;;;;-0.66;89.55;101393.69;1441931;90;21573;-92
2022/02/24 02:45:34;;;;;;;15.80;10.82;;;;;;;-0.69;89.47;101395.94;1437019;91;21398;-91
2022/02/24 02:48:02;;;;;;;17.10;10.93;;;;;;;-0.73;89.47;101394.32;1422602;91;21452;-88
2022/02/24 02:50:30;;;;;;;18.15;11.57;;;;;;;-0.79;89.41;101385.43;1416194;91;21427;-90
2022/02/24 02:53:02;;;;;;;16.50;9.83;;;;;;;-0.79;89.43;101388.03;1426010;90;22409;-90
2022/02/24 02:55:30;;;;;;;15.10;10.70;;;;;;;-0.80;89.36;101386.80;1427935;91;21604;-90
2022/02/24 02:57:57;;;;;;;18.80;10.32;;;;;;;-0.83;89.22;101389.50;1397327;92;23856;-90
2022/02/24 03:00:24;;;;;;;19.70;12.18;;;;;;;-0.87;89.20;101390.48;1417874;91;21375;-90
2022/02/24 03:02:52;;;;;;;17.30;10.55;;;;;;;-0.96;89.59;101391.64;1441988;90;21360;-88
2022/02/24 03:05:20;;;;;;;17.73;10.32;;;;;;;-1.02;89.53;101394.45;1437466;90;21375;-90
2022/02/24 03:07:47;;;;;;;16.62;8.95;;;;;;;-1.06;89.31;101393.70;1426489;90;21367;-88
2022/02/24 03:10:15;;;;;;;12.98;9.38;;;;;;;-1.11;89.49;101394.30;1418497;92;21510;-88
2022/02/24 03:12:42;;;;;;;13.93;9.35;;;;;;;-1.12;89.43;101393.91;1398875;94;21570;-88
2022/02/24 03:15:17;;;;;;;12.18;10.05;;;;;;;-1.14;89.56;101399.13;1432016;91;21522;-87
2022/02/24 03:17:46;;;;;;;11.30;8.93;;;;;;;-1.15;89.44;101394.84;1439437;90;21323;-87
2022/02/24 03:20:15;;;;;;;12.30;9.03;;;;;;;-1.19;89.33;101393.23;1430037;91;21494;-87
2022/02/24 03:22:43;;;;;;;10.10;8.53;;;;;;;-1.19;89.28;101397.58;1416214;92;21674;-87
2022/02/24 03:25:10;;;;;;;14.33;9.95;;;;;;;-1.19;89.26;101397.13;1431356;91;21663;-87
2022/02/24 03:27:38;;;;;;;11.15;9.63;;;;;;;-1.18;89.33;101398.84;1442714;90;21552;-87
2022/02/24 03:30:07;;;;;;;13.43;8.93;;;;;;;-1.15;89.30;101401.80;1441796;90;23340;-88
2022/02/24 03:32:34;;;;;;;12.20;8.83;;;;;;;-1.15;89.14;101396.60;1428404;91;21611;-87
2022/02/24 03:35:01;;;;;;;16.60;11.18;;;;;;;-1.12;89.22;101399.52;1419147;91;21582;-87
2022/02/24 03:37:28;;;;;;;16.35;10.43;;;;;;;-1.07;89.26;101401.53;1426192;90;21546;-88
2022/02/24 03:39:55;;;;;;;13.70;10.32;;;;;;;-1.08;88.92;101399.39;1418169;91;21657;-88
2022/02/24 03:42:24;;;;;;;15.68;10.50;;;;;;;-1.09;88.70;101403.32;1428403;89;21309;-88
2022/02/24 03:44:51;;;;;;;15.25;10.53;;;;;;;-1.13;88.53;101406.48;1428885;91;21398;-88
2022/02/24 03:47:19;;;;;;;16.95;10.65;;;;;;;-1.14;88.36;101407.38;1408812;93;21376;-89
2022/02/24 03:49:47;;;;;;;15.65;10.78;;;;;;;-1.17;88.38;101403.59;1436164;89;21428;-90
2022/02/24 03:52:14;;;;;;;18.70;11.88;;;;;;;-1.21;88.24;101401.97;1437717;91;21413;-90
2022/02/24 03:54:43;;;;;;;20.45;14.10;;;;;;;-1.20;88.16;101407.58;1440878;91;21906;-91
2022/02/24 03:57:11;;;;;;;17.48;11.75;;;;;;;-1.25;87.96;101409.02;1439618;91;22418;-90
2022/02/24 03:59:38;;;;;;;23.45;14.80;;;;;;;-1.25;87.87;101409.02;1428560;89;22262;-89
2022/02/24 04:02:05;;;;;;;21.60;14.25;;;;;;;-1.24;87.73;101412.45;1433448;91;22271;-89
2022/02/24 04:04:33;;;;;;;21.73;13.35;;;;;;;-1.27;87.53;101412.55;1433794;91;21575;-87
2022/02/24 04:07:01;;;;;;;22.40;13.28;;;;;;;-1.29;87.48;101411.32;1425141;91;21516;-87
2022/02/24 04:09:28;;;;;;;20.30;13.30;;;;;;;-1.31;87.44;101417.45;1401361;93;21443;-88
2022/02/24 04:11:57;;;;;;;20.60;14.05;;;;;;;-1.31;87.54;101414.86;1429743;91;21398;-88
2022/02/24 04:14:24;;;;;;;27.98;17.45;;;;;;;-1.31;87.63;101416.16;1433541;91;21413;-88
2022/02/24 04:16:51;;;;;;;28.47;17.27;;;;;;;-1.28;87.74;101427.30;1439552;91;21413;-88
2022/02/24 04:19:18;;;;;;;28.15;18.17;;;;;;;-1.27;87.54;101426.84;1430296;91;21465;-88
2022/02/24 04:21:45;;;;;;;39.25;20.48;;;;;;;-1.28;87.51;101423.85;1435973;91;21450;-88
2022/02/24 04:24:12;;;;;;;26.15;18.10;;;;;;;-1.29;87.37;101426.06;1417320;91;21590;-87
2022/02/24 04:26:39;;;;;;;27.45;18.45;;;;;;;-1.31;87.35;101426.55;1430576;91;21339;-86
2022/02/24 04:29:06;;;;;;;27.17;16.73;;;;;;;-1.32;87.25;101420.93;1439214;91;21391;-86
2022/02/24 04:31:34;;;;;;;24.60;15.75;;;;;;;-1.34;87.03;101417.55;1424692;89;21501;-86
2022/02/24 04:34:00;;;;;;;21.97;14.93;;;;;;;-1.37;86.88;101440.57;1445903;89;22380;-86
2022/02/24 04:36:28;;;;;;;25.43;15.43;;;;;;;-1.40;86.92;101445.41;1434994;90;22439;-87
2022/02/24 04:38:55;;;;;;;21.87;14.45;;;;;;;-1.41;87.03;101445.02;1427042;91;21383;-88
2022/02/24 04:41:22;;;;;;;24.10;14.65;;;;;;;-1.38;87.03;101451.41;1438749;90;21986;-88
2022/02/24 04:43:49;;;;;;;22.15;14.60;;;;;;;-1.37;86.97;101458.30;1441366;90;21287;-88
2022/02/24 04:46:16;;;;;;;28.07;14.55;;;;;;;-1.37;86.94;101462.19;1424302;91;22616;-89
2022/02/24 04:48:43;;;;;;;22.87;13.90;;;;;;;-1.45;87.24;101468.05;1413338;92;21445;-88
2022/02/24 04:51:10;;;;;;;21.02;14.58;;;;;;;-1.51;86.75;101456.55;1422502;92;21435;-87
2022/02/24 04:53:38;;;;;;;23.30;15.32;;;;;;;-1.57;86.82;101459.80;1438930;90;21456;-87
2022/02/24 04:56:06;;;;;;;23.52;13.98;;;;;;;-1.60;86.54;101455.53;1431599;91;21427;-87
2022/02/24 04:58:34;;;;;;;28.98;14.38;;;;;;;-1.63;86.39;101459.52;1414457;92;21592;-88
2022/02/24 05:01:02;;;;;;;30.68;16.15;;;;;;;-1.66;86.35;101462.20;1416208;92;23481;-87
2022/02/24 05:03:29;;;;;;;26.07;15.00;;;;;;;-1.66;86.43;101472.59;1447040;90;22343;-88
2022/02/24 05:05:56;;;;;;;22.58;14.03;;;;;;;-1.66;86.54;101471.30;1437408;90;21441;-86
2022/02/24 05:08:23;;;;;;;22.52;13.65;;;;;;;-1.64;86.72;101475.55;1446681;90;21359;-87
2022/02/24 05:10:51;;;;;;;24.00;14.68;;;;;;;-1.67;86.63;101473.46;1432725;91;21390;-88
2022/02/24 05:13:18;;;;;;;21.52;13.32;;;;;;;-1.71;86.49;101474.45;1402227;92;21466;-88
2022/02/24 05:15:47;;;;;;;20.35;12.98;;;;;;;-1.75;86.29;101474.16;1416226;92;21415;-91
2022/02/24 05:18:15;;;;;;;22.62;14.68;;;;;;;-1.78;86.14;101472.91;1436289;91;21419;-90
2022/02/24 05:20:42;;;;;;;24.05;13.95;;;;;;;-1.79;86.10;101475.13;1416476;92;21445;-85
2022/02/24 05:23:09;;;;;;;27.42;15.85;;;;;;;-1.81;86.16;101475.18;1415076;92;22465;-85
2022/02/24 05:25:37;;;;;;;24.30;15.25;;;;;;;-1.85;85.97;101479.58;1395182;94;22488;-86
2022/02/24 05:28:08;;;;;;;29.35;17.30;;;;;;;-1.85;85.91;101474.84;1432642;91;21360;-87
2022/02/24 05:30:36;;;;;;;21.97;13.45;;;;;;;-1.86;85.82;101483.08;1406374;91;21604;-87
2022/02/24 05:33:04;;;;;;;32.85;17.65;;;;;;;-1.87;85.91;101482.69;1420350;92;21378;-87
2022/02/24 05:35:31;;;;;;;30.88;16.45;;;;;;;-1.88;85.80;101483.56;1434751;91;21353;-87
2022/02/24 05:37:58;;;;;;;30.68;17.35;;;;;;;-1.90;85.98;101479.30;1432969;90;21315;-85
2022/02/24 05:40:25;;;;;;;28.35;17.35;;;;;;;-1.89;85.97;101480.57;1437876;90;21389;-86
2022/02/24 05:42:53;;;;;;;31.33;15.90;;;;;;;-1.89;85.85;101480.57;1433339;91;21537;-86
2022/02/24 05:45:20;;;;;;;30.02;17.27;;;;;;;-1.88;85.77;101477.52;1408730;92;22315;-86
2022/02/24 05:47:47;;;;;;;26.30;16.12;;;;;;;-1.88;85.74;101478.37;1436138;91;21323;-87
2022/02/24 05:50:14;;;;;;;27.20;18.55;;;;;;;-1.90;85.61;101482.77;1443778;90;21345;-86
2022/02/24 05:52:41;;;;;;;22.82;15.05;;;;;;;-1.90;85.43;101481.48;1432576;91;21397;-87
2022/02/24 05:55:09;;;;;;;25.85;15.88;;;;;;;-1.87;85.60;101485.28;1412933;92;21444;-87
2022/02/24 05:57:36;;;;;;;28.10;17.02;;;;;;;-1.86;85.71;101483.08;1423274;92;22445;-90
2022/02/24 06:00:04;;;;;;;29.10;18.10;;;;;;;-1.78;85.91;101485.89;1420753;92;22396;-88
2022/02/24 06:02:31;;;;;;;27.77;17.30;;;;;;;-1.75;85.98;101481.95;1442541;90;21338;-88
2022/02/24 06:04:59;;;;;;;22.48;14.43;;;;;;;-1.73;85.85;101489.22;1439482;90;21381;-89
2022/02/24 06:07:25;;;;;;;46.75;30.48;;;;;;;-1.71;86.06;101480.95;1433526;90;21346;-91
2022/02/24 06:09:53;;;;;;;61.25;39.40;;;;;;;-1.67;86.11;101483.42;1450307;90;21411;-85
2022/02/24 06:12:20;;;;;;;61.13;41.88;;;;;;;-1.59;86.37;101484.48;1442388;90;21404;-87
2022/02/24 06:14:47;;;;;;;45.33;28.67;;;;;;;-1.50;86.50;101480.31;1445762;90;21397;-87
2022/02/24 06:17:14;;;;;;;40.17;22.30;;;;;;;-1.43;86.74;101490.09;1430873;91;21524;-84
2022/02/24 06:19:43;;;;;;;32.93;18.75;;;;;;;-1.40;86.33;101486.11;1428558;90;21309;-86
2022/02/24 06:22:10;;;;;;;32.90;19.62;;;;;;;-1.32;86.55;101484.56;1448936;88;21397;-86
2022/02/24 06:24:37;;;;;;;32.13;19.37;;;;;;;-1.21;87.00;101483.38;1466230;88;21436;-84
2022/02/24 06:27:06;;;;;;;27.35;15.65;;;;;;;-1.09;87.31;101470.87;1468009;88;21353;-86
2022/02/24 06:29:33;;;;;;;36.15;18.27;;;;;;;-1.00;87.29;101476.66;1462852;88;21538;-84
2022/02/24 06:32:02;;;;;;;25.60;16.60;;;;;;;-0.93;86.89;101472.11;1463092;88;21449;-84
2022/02/24 06:34:30;;;;;;;28.47;17.65;;;;;;;-0.86;86.74;101476.22;1434682;90;21398;-84
2022/02/24 06:36:58;;;;;;;29.23;18.25;;;;;;;-0.76;86.64;101478.06;1419087;91;21443;-83
2022/02/24 06:39:25;;;;;;;24.45;15.05;;;;;;;-0.62;86.93;101478.92;1466299;88;21309;-83
2022/02/24 06:41:52;;;;;;;21.57;13.72;;;;;;;-0.51;86.80;101484.63;1466230;88;21539;-85
2022/02/24 06:44:20;;;;;;;18.98;12.40;;;;;;;-0.39;86.67;101491.16;1461103;88;23445;-84
2022/02/24 06:46:47;;;;;;;18.25;12.37;;;;;;;-0.33;86.34;101487.05;1469807;88;21552;-85
2022/02/24 06:49:14;;;;;;;20.60;13.30;;;;;;;-0.25;86.38;101483.74;1463951;88;21383;-84
2022/02/24 06:51:41;;;;;;;29.80;17.85;;;;;;;-0.16;86.27;101484.72;1463093;88;21362;-84
2022/02/24 06:54:09;;;;;;;24.97;16.30;;;;;;;-0.07;86.44;101482.25;1462151;88;21369;-84
2022/02/24 06:56:38;;;;;;;22.70;14.97;;;;;;;0.07;86.81;101482.61;1461669;88;21701;-85
2022/02/24 06:59:07;;;;;;;21.23;14.20;;;;;;;0.22;87.11;101487.25;1466903;88;21587;-85
2022/02/24 07:01:35;;;;;;;20.70;15.60;;;;;;;0.39;87.23;101490.55;1463480;88;21650;-85
2022/02/24 07:04:02;;;;;;;32.40;17.93;;;;;;;0.55;87.05;101496.52;1465071;88;21406;-84
2022/02/24 07:06:29;;;;;;;25.30;15.67;;;;;;;0.72;87.09;101498.03;1461782;88;21428;-84
2022/02/24 07:08:58;;;;;;;21.00;13.77;;;;;;;0.85;86.70;101497.94;1467837;88;21687;-84
2022/02/24 07:11:27;;;;;;;18.93;13.10;;;;;;;0.92;85.91;101499.84;1465809;88;21822;-84
2022/02/24 07:13:54;;;;;;;22.47;14.37;;;;;;;0.96;85.37;101497.99;1469305;88;21554;-85
2022/02/24 07:16:22;;;;;;;20.77;13.83;;;;;;;1.06;85.91;101494.94;1464818;88;21541;-84
2022/02/24 07:18:49;;;;;;;19.57;12.93;;;;;;;1.23;86.10;101494.27;1461615;88;21582;-84
2022/02/24 07:21:16;;;;;;;20.23;13.27;;;;;;;1.31;85.33;101488.30;1469096;88;21611;-85
2022/02/24 07:23:43;;;;;;;20.97;12.90;;;;;;;1.40;85.29;101487.53;1459851;88;21604;-84
2022/02/24 07:26:11;;;;;;;21.50;14.07;;;;;;;1.46;84.43;101491.19;1462575;88;21654;-82
2022/02/24 07:28:38;;;;;;;25.10;14.57;;;;;;;1.55;84.68;101490.80;1466621;88;21541;-83
2022/02/24 07:31:05;;;;;;;19.47;13.03;;;;;;;1.70;85.10;101487.57;1466276;88;22081;-82
2022/02/24 07:33:41;;;;;;;25.50;17.07;;;;;;;1.88;85.07;101495.53;1468299;88;21582;-82
2022/02/24 07:36:09;;;;;;;24.80;14.70;;;;;;;2.03;84.75;101498.77;1462473;88;21828;-82
2022/02/24 07:38:36;;;;;;;21.30;13.60;;;;;;;2.12;84.03;101497.06;1462249;88;22665;-82
2022/02/24 07:41:03;;;;;;;21.70;13.87;;;;;;;2.26;83.70;101499.91;1461178;88;21817;-83
2022/02/24 07:43:32;;;;;;;21.90;15.77;;;;;;;2.41;83.69;101494.92;1458689;88;22913;-82
2022/02/24 07:46:00;;;;;;;21.47;12.90;;;;;;;2.60;84.13;101495.79;1459786;88;22660;-82
2022/02/24 07:48:27;;;;;;;21.33;10.67;;;;;;;2.80;83.81;101495.33;1456886;88;21699;-82
2022/02/24 07:50:55;;;;;;;14.87;10.47;;;;;;;2.98;83.61;101494.92;1464322;88;22887;-82
2022/02/24 07:53:24;;;;;;;21.33;13.53;;;;;;;3.17;82.94;101487.90;1458608;88;21748;-82
2022/02/24 07:55:52;;;;;;;29.47;14.93;;;;;;;3.36;82.76;101482.59;1460433;88;21780;-82
2022/02/24 07:58:19;;;;;;;26.20;12.87;;;;;;;3.70;82.02;101486.16;1460536;88;21756;-82
2022/02/24 08:00:46;;;;;;;17.63;11.47;;;;;;;3.85;80.76;101482.75;1446557;88;21942;-82
2022/02/24 08:03:13;;;;;;;19.23;11.50;;;;;;;3.85;80.76;101460.48;1469038;88;22043;-83
2022/02/24 08:05:40;;;;;;;20.53;13.50;;;;;;;4.11;80.82;101480.56;1462915;88;22256;-79
2022/02/24 08:08:08;;;;;;;17.40;10.60;;;;;;;4.11;80.82;101480.56;1460804;88;22386;-79
2022/02/24 08:10:35;;;;;;;19.60;10.63;;;;;;;4.26;79.41;101482.39;1460494;88;22026;-79
2022/02/24 08:13:02;;;;;;;18.20;10.40;;;;;;;4.35;78.41;101484.52;1457645;88;23132;-78
2022/02/24 08:15:32;;;;;;;20.50;10.47;;;;;;;4.44;78.35;101484.02;1445078;88;22273;-79
2022/02/24 08:17:59;;;;;;;17.27;10.93;;;;;;;4.55;77.20;101469.00;1468603;88;22145;-79
2022/02/24 08:20:26;;;;;;;18.07;10.63;;;;;;;4.64;77.78;101469.00;1461886;88;21318;-79
2022/02/24 08:22:58;;;;;;;14.07;8.93;;;;;;;4.83;76.94;101472.75;1460566;88;22104;-79
2022/02/24 08:25:24;;;;;;;;;;;;;;;4.84;75.49;101471.36;1460242;88;21450;-80
2022/02/24 08:27:51;;;;;;;19.90;10.87;;;;;;;4.96;75.78;101465.42;1460070;88;21860;-79
2022/02/24 08:30:21;;;;;;;19.67;11.27;;;;;;;5.10;75.75;101469.06;1460816;88;21295;-79
2022/02/24 08:32:50;;;;;;;18.87;12.30;;;;;;;5.23;75.50;101467.41;1482176;88;21405;-79
2022/02/24 08:35:19;;;;;;;20.67;12.40;;;;;;;5.33;73.94;101463.81;1459873;88;21531;-79
2022/02/24 08:37:51;;;;;;;16.37;11.40;;;;;;;5.32;73.96;101464.28;1439626;88;21546;-80
2022/02/24 08:40:22;;;;;;;15.87;11.17;;;;;;;5.42;73.33;101469.36;1457698;87;21729;-79
2022/02/24 08:42:51;;;;;;;20.92;12.43;;;;;;;5.59;73.57;101464.91;1447955;86;21633;-80
2022/02/24 08:45:20;;;;;;;18.63;12.53;;;;;;;5.77;74.29;101469.06;1474321;88;21310;-80
2022/02/24 08:47:48;;;;;;;17.67;10.87;;;;;;;5.85;72.32;101460.27;1465765;88;21361;-79
2022/02/24 08:50:18;;;;;;;23.57;12.93;;;;;;;5.87;71.59;101459.72;1467996;88;21418;-80
2022/02/24 08:52:45;;;;;;;19.87;11.90;;;;;;;5.97;72.25;101455.25;1467577;87;21223;-80
2022/02/24 08:55:14;;;;;;;22.23;11.43;;;;;;;6.18;73.16;101458.34;1462431;88;21493;-80
2022/02/24 08:57:42;;;;;;;16.90;10.23;;;;;;;6.41;73.05;101450.34;1465430;88;21378;-80
2022/02/24 09:00:11;;;;;;;17.67;11.07;;;;;;;6.57;71.67;101447.62;1459683;88;22571;-79
2022/02/24 09:02:39;;;;;;;23.20;12.50;;;;;;;6.64;70.73;101444.48;1467944;88;21406;-79
2022/02/24 09:05:07;;;;;;;22.80;10.63;;;;;;;6.86;71.55;101441.81;1467588;88;21583;-79
2022/02/24 09:07:35;;;;;;;19.87;9.27;;;;;;;7.07;70.91;101436.93;1471544;88;21398;-79
2022/02/24 09:10:04;;;;;;;22.53;9.93;;;;;;;7.30;70.22;101444.63;1465508;87;21565;-79
2022/02/24 09:12:31;;;;;;;19.80;10.83;;;;;;;7.48;70.11;101437.29;1454422;88;21560;-80
2022/02/24 09:14:59;;;;;;;15.83;10.50;;;;;;;7.60;69.10;101437.33;1463285;88;21376;-79
2022/02/24 09:17:27;;;;;;;19.27;10.13;;;;;;;7.83;69.28;101441.51;1448091;88;21414;-79
2022/02/24 09:19:55;;;;;;;24.47;10.40;;;;;;;7.99;68.15;101437.33;1465143;88;21370;-79
2022/02/24 09:22:22;;;;;;;16.93;7.83;;;;;;;8.20;63.57;101433.66;1463197;88;21412;-79
2022/02/24 09:24:49;;;;;;;18.37;7.87;;;;;;;8.28;63.94;101436.61;1460718;88;21369;-81
2022/02/24 09:27:19;;;;;;;9.83;5.80;;;;;;;8.44;65.31;101433.30;1464613;88;21613;-81
2022/02/24 09:29:46;;;;;;;11.43;5.30;;;;;;;8.54;60.35;101434.30;1465858;88;21354;-81
2022/02/24 09:32:13;;;;;;;10.87;5.33;;;;;;;8.69;60.62;101427.56;1468127;88;21488;-81
2022/02/24 09:34:40;;;;;;;12.50;5.70;;;;;;;9.06;59.75;101420.43;1469924;88;21503;-81
2022/02/24 09:37:08;;;;;;;13.77;6.33;;;;;;;9.70;60.02;101422.69;1466243;88;21403;-80
2022/02/24 09:39:35;;;;;;;15.90;6.90;;;;;;;10.32;57.70;101412.15;1466326;88;21552;-81
2022/02/24 09:42:03;;;;;;;13.77;6.03;;;;;;;11.02;57.30;101406.94;1465023;88;21555;-80
2022/02/24 09:44:31;;;;;;;14.53;7.07;;;;;;;11.58;51.96;101407.95;1464801;88;21390;-80
2022/02/24 09:46:59;;;;;;;13.40;5.57;;;;;;;12.16;48.83;101400.31;1467772;87;21362;-80
2022/02/24 09:49:28;;;;;;;12.67;6.17;;;;;;;12.81;49.08;101399.92;1448539;88;22798;-80
2022/02/24 09:51:55;;;;;;;16.70;6.83;;;;;;;13.43;49.20;101401.31;1463370;87;21368;-80
2022/02/24 09:54:23;;;;;;;16.03;6.17;;;;;;;13.86;46.66;101397.28;1469837;88;21614;-80
2022/02/24 09:56:50;;;;;;;16.63;6.47;;;;;;;14.27;46.03;101391.17;1473146;88;21880;-81
2022/02/24 09:59:17;;;;;;;16.83;6.17;;;;;;;14.70;45.25;101390.98;1473380;88;21466;-80
2022/02/24 10:01:45;;;;;;;12.03;6.73;;;;;;;15.18;43.62;101383.61;1471026;88;22322;-82
2022/02/24 10:04:12;;;;;;;10.70;5.77;;;;;;;15.27;40.53;101381.34;1472760;88;21362;-82
2022/02/24 10:06:44;;;;;;;11.77;6.37;;;;;;;15.13;40.45;101378.72;1476799;88;21590;-80
2022/02/24 10:09:22;;;;;;;13.90;6.43;;;;;;;15.19;40.86;101376.80;1472021;88;21479;-80
2022/02/24 10:11:50;;;;;;;12.70;6.73;;;;;;;15.07;39.38;101373.51;1463569;88;21516;-80
2022/02/24 10:14:24;;;;;;;16.43;6.90;;;;;;;14.99;40.00;101373.94;1476501;88;21509;-80
2022/02/24 10:17:03;;;;;;;14.60;6.73;;;;;;;15.18;40.80;101376.44;1477420;88;21531;-79
2022/02/24 10:19:44;;;;;;;16.73;7.07;;;;;;;15.39;40.17;101372.59;1479567;88;21376;-81
2022/02/24 10:22:19;;;;;;;16.33;7.97;;;;;;;15.47;38.91;101366.81;1470173;88;21501;-82
2022/02/24 10:25:11;;;;;;;14.57;7.20;;;;;;;15.45;39.81;101359.95;1475573;88;22578;-82
2022/02/24 10:27:40;;;;;;;13.55;7.25;;;;;;;15.74;38.88;101359.19;1475639;88;22300;-83
2022/02/24 10:30:17;;;;;;;14.03;6.62;;;;;;;15.96;38.74;101354.27;1456054;88;22315;-84
2022/02/24 10:32:59;;;;;;;16.30;6.40;;;;;;;16.06;38.32;101354.16;1475637;88;22359;-84
2022/02/24 10:35:39;;;;;;;11.35;5.47;;;;;;;15.88;37.14;101348.42;1491948;88;21517;-84
2022/02/24 10:38:13;;;;;;;15.63;6.00;;;;;;;15.83;38.19;101351.22;1477829;88;21516;-84
2022/02/24 10:40:46;;;;;;;12.23;5.92;;;;;;;15.99;36.43;101347.27;1467852;88;21503;-85
2022/02/24 10:43:29;;;;;;;15.03;6.40;;;;;;;16.21;36.79;101337.34;1475239;87;22542;-85
2022/02/24 10:46:17;;;;;;;16.10;6.75;;;;;;;16.34;38.76;101334.70;1488107;87;21361;-85
2022/02/24 10:48:57;;;;;;;16.05;5.97;;;;;;;16.72;38.71;101333.79;1484375;87;21382;-85
2022/02/24 10:51:34;;;;;;;12.43;4.22;;;;;;;16.94;37.51;101327.79;1483194;87;22336;-87
2022/02/24 10:54:09;;;;;;;12.35;4.00;;;;;;;16.99;35.85;101321.95;1493711;87;21509;-85
2022/02/24 10:56:42;;;;;;;9.93;4.03;;;;;;;16.89;34.29;101323.47;1488500;87;21441;-83
2022/02/24 10:59:14;;;;;;;6.78;3.58;;;;;;;16.60;33.95;101316.73;1485518;87;21442;-85
2022/02/24 11:01:40;;;;;;;10.18;4.17;;;;;;;16.14;31.66;101304.77;1484837;87;21595;-83
2022/02/24 11:04:08;;;;;;;8.28;3.72;;;;;;;15.78;32.70;101310.32;1490477;87;21500;-83
2022/02/24 11:06:37;;;;;;;18.73;5.45;;;;;;;15.49;33.32;101311.98;1488985;87;21545;-83
2022/02/24 11:09:07;;;;;;;10.13;3.62;;;;;;;15.50;34.15;101308.30;1493460;87;21338;-83
2022/02/24 11:11:38;;;;;;;10.03;3.50;;;;;;;15.76;34.69;101303.80;1489727;87;21464;-83
2022/02/24 11:14:10;;;;;;;5.97;2.52;;;;;;;15.85;33.71;101301.16;1487705;87;21368;-83
2022/02/24 11:16:37;;;;;;;8.88;3.12;;;;;;;15.67;32.51;101299.39;1489744;87;23243;-83
2022/02/24 11:19:04;;;;;;;9.35;3.35;;;;;;;15.96;34.01;101294.20;1481704;87;21376;-83